Flight Track Log - Related Links

Times and Time Zones

All times are in EST time to prevent confusion due to time zone crossing. See the N3714X flight status page for this flight to view local times or setup timezone preferences in your user account.

Time Position Orientation Groundspeed Altitude Reporting Facility
EST Latitude Longitude Course Direction KTS MPH feet Rate Location/Type
Tue 04:03:32 PM 47.3906 -120.1856 298° West 95 109 4,400  Level Seattle Center
Tue 04:04:33 PM 47.4025 -120.2192 146° Southeast 93 107 4,700 344 Climbing Seattle Center
Tue 04:05:34 PM 47.3858 -120.2028 123° Southeast 74 85 5,100 443 Climbing Seattle Center
Tue 04:06:35 PM 47.3756 -120.1797 119° Southeast 67 77 5,600 590 Climbing Seattle Center
Tue 04:07:36 PM 47.3664 -120.1553 113° Southeast 68 78 6,300 639 Climbing Seattle Center
Tue 04:08:37 PM 47.3586 -120.1281 121° Southeast 70 81 6,900 393 Climbing Seattle Center
Tue 04:09:38 PM 47.3481 -120.1025 127° Southeast 73 84 7,100 98 Climbing Seattle Center
Tue 04:10:39 PM 47.3331 -120.0736 122° Southeast 83 96 7,100 -49 Level Seattle Center
Tue 04:11:40 PM 47.3200 -120.0431 89° East 88 101 7,000 -49 Descending Seattle Center
Tue 04:12:41 PM 47.3203 -120.0047 75° East 93 107 7,000  Level Seattle Center
Tue 04:13:42 PM 47.3286 -119.9589 62° Northeast 102 117 7,000  Level Seattle Center
Tue 04:14:43 PM 47.3431 -119.9189 73° East 105 121 7,000 49 Level Seattle Center
Tue 04:15:44 PM 47.3517 -119.8772 82° East 107 123 7,100  Climbing Seattle Center
Tue 04:16:45 PM 47.3556 -119.8344 87° East 106 122 7,000 -98 Descending Seattle Center
Tue 04:17:46 PM 47.3572 -119.7928 81° East 103 119 6,900 -244 Descending Seattle Center
Tue 04:18:48 PM 47.3617 -119.7506 70° East 105 121 6,500 -439 Descending Seattle Center
Tue 04:19:49 PM 47.3722 -119.7078 70° East 114 131 6,000 -492 Descending Seattle Center
Tue 04:20:50 PM 47.3825 -119.6664 71° East 109 125 5,500 -492 Descending Seattle Center
Tue 04:21:51 PM 47.3919 -119.6264 79° East 104 120 5,000 -393 Descending Seattle Center
Tue 04:22:52 PM 47.3969 -119.5894 87° East 96 110 4,700 -393 Descending Seattle Center
Tue 04:23:53 PM 47.3981 -119.5539 79° East 84 97 4,200 -295 Descending Seattle Center
Tue 04:24:54 PM 47.4025 -119.5200 76° East 92 106 4,100 -49 Descending Seattle Center
Tue 04:25:55 PM 47.4089 -119.4825 69° East 94 108 4,100  Level Seattle Center
Tue 04:26:56 PM 47.4197 -119.4417 121° Southeast 89 102 4,100 -148 Level Seattle Center
Tue 04:27:57 PM 47.4097 -119.4175 152° Southeast 100 115 3,800 -246 Descending Seattle Center
Tue 04:28:58 PM 47.3875 -119.4003 162° South 87 100 3,600 -197 Descending Seattle Center
Tue 04:29:59 PM 47.3597 -119.3867 165° South 105 121 3,400 -148 Descending Seattle Center
Tue 04:31:00 PM 47.3336 -119.3764 165° South 101 116 3,300 -98 Descending Seattle Center
Tue 04:32:01 PM 47.3075 -119.3658 164° South 101 116 3,200 -344 Descending Seattle Center
Tue 04:33:02 PM 47.2753 -119.3519 161° South 110 127 2,600 -634 Descending Seattle Center
Tue 04:34:04 PM 47.2425 -119.3353 162° South 115 132 1,900 -634 Descending Seattle Center
Tue 04:35:05 PM 47.2178 -119.3236 159° South 93 107 1,300 -344 Descending Seattle Center
Tue 04:36:06 PM 47.2050 -119.3164 159° South 78 90 1,200 -98 Descending Seattle Center

Login

Don't have an account? Register now (free) for customized features, flight alerts, and more!